Time;durP1;ratioP1;P1;durP2;ratioP2;P2;SDS_P1;SDS_P2;PMS_P1;PMS_P2;Temp;Humidity;BMP_temperature;BMP_pressure;BME280_temperature;BME280_humidity;BME280_pressure;Samples;Min_cycle;Max_cycle;Signal;HPM_P1;HPM_P2
2023/11/09 00:02:03;;;;;;;1.43;0.77;;;9.20;99.90;;;;;;5034403;28;20052;-54
2023/11/09 00:04:29;;;;;;;4.73;1.50;;;9.20;99.90;;;;;;5033938;28;20025;-56
2023/11/09 00:06:54;;;;;;;3.10;1.57;;;9.20;99.90;;;;;;5033607;28;20091;-52
2023/11/09 00:09:20;;;;;;;3.10;1.20;;;9.20;99.90;;;;;;5032971;28;20037;-55
2023/11/09 00:11:46;;;;;;;2.70;1.13;;;9.20;99.90;;;;;;5033942;28;20022;-53
2023/11/09 00:14:15;;;;;;;3.50;1.10;;;9.20;99.90;;;;;;5033547;28;20065;-54
2023/11/09 00:16:41;;;;;;;3.13;1.13;;;9.30;99.90;;;;;;5033267;28;20029;-55
2023/11/09 00:19:07;;;;;;;4.87;1.10;;;9.20;99.90;;;;;;5033627;28;20067;-55
2023/11/09 00:21:33;;;;;;;4.23;0.90;;;9.20;99.90;;;;;;5033458;28;20075;-54
2023/11/09 00:23:58;;;;;;;3.87;1.10;;;9.20;99.90;;;;;;5033011;28;20033;-54
2023/11/09 00:26:24;;;;;;;2.77;1.20;;;9.30;99.90;;;;;;5033064;28;20029;-55
2023/11/09 00:28:50;;;;;;;1.90;0.90;;;9.30;99.90;;;;;;5033125;28;20394;-54
2023/11/09 00:31:18;;;;;;;4.37;1.40;;;9.30;99.90;;;;;;5032872;28;20036;-55
2023/11/09 00:33:44;;;;;;;2.17;1.00;;;9.30;99.90;;;;;;5015838;28;20026;-52
2023/11/09 00:36:09;;;;;;;2.23;1.03;;;9.30;99.90;;;;;;5015276;28;20127;-55
2023/11/09 00:38:35;;;;;;;3.57;1.03;;;9.20;99.90;;;;;;5032899;28;20025;-55
2023/11/09 00:41:02;;;;;;;1.70;1.10;;;9.20;99.90;;;;;;5034523;28;20029;-56
2023/11/09 00:43:29;;;;;;;1.80;0.90;;;9.20;99.90;;;;;;5035082;28;20054;-55
2023/11/09 00:45:55;;;;;;;1.83;0.93;;;9.20;99.90;;;;;;5016895;28;20034;-56
2023/11/09 00:48:21;;;;;;;1.37;0.83;;;9.20;99.90;;;;;;5034656;28;20132;-53
2023/11/09 00:50:47;;;;;;;2.40;1.40;;;9.20;99.90;;;;;;5034744;28;20033;-56
2023/11/09 00:53:12;;;;;;;2.60;1.07;;;9.20;99.90;;;;;;5034474;28;20036;-55
2023/11/09 00:55:38;;;;;;;2.23;1.27;;;9.20;99.90;;;;;;5034682;28;20026;-53
2023/11/09 00:58:04;;;;;;;3.40;1.20;;;9.20;99.90;;;;;;5017653;28;20029;-56
2023/11/09 01:00:30;;;;;;;3.33;1.20;;;9.20;99.90;;;;;;5037896;28;20053;-56
2023/11/09 01:02:55;;;;;;;2.53;1.40;;;9.20;99.90;;;;;;5037832;28;20390;-55
2023/11/09 01:05:21;;;;;;;2.23;0.80;;;9.20;99.90;;;;;;5037470;28;20371;-56
2023/11/09 01:07:47;;;;;;;2.63;1.20;;;9.30;99.90;;;;;;5019237;28;20047;-53
2023/11/09 01:10:13;;;;;;;3.07;1.10;;;9.20;99.90;;;;;;5019524;28;20116;-56
2023/11/09 01:12:38;;;;;;;1.60;0.90;;;9.20;99.90;;;;;;5020145;28;20033;-57
2023/11/09 01:15:05;;;;;;;1.90;1.10;;;9.20;99.90;;;;;;5019420;28;20022;-53
2023/11/09 01:17:31;;;;;;;3.53;0.90;;;9.20;99.90;;;;;;5018316;28;20124;-55
2023/11/09 01:19:56;;;;;;;2.87;0.90;;;9.30;99.90;;;;;;5036392;28;20049;-53
2023/11/09 01:22:22;;;;;;;1.67;0.90;;;9.20;99.90;;;;;;5018554;28;20406;-53
2023/11/09 01:24:48;;;;;;;1.87;1.10;;;9.20;99.90;;;;;;5018875;28;20087;-52
2023/11/09 01:27:13;;;;;;;1.67;1.13;;;9.20;99.90;;;;;;5018780;28;20088;-55
2023/11/09 01:29:39;;;;;;;1.90;0.90;;;9.30;99.90;;;;;;5035737;28;20497;-54
2023/11/09 01:32:05;;;;;;;5.90;1.40;;;9.30;99.90;;;;;;5018323;28;20034;-55
2023/11/09 01:34:31;;;;;;;3.90;1.23;;;9.30;99.90;;;;;;5018576;28;20037;-56
2023/11/09 01:36:57;;;;;;;4.30;1.10;;;9.20;99.90;;;;;;5036306;28;20405;-54
2023/11/09 01:39:23;;;;;;;3.17;1.00;;;9.30;99.90;;;;;;5018545;28;20029;-55
2023/11/09 01:41:49;;;;;;;1.83;1.10;;;9.20;99.90;;;;;;5019393;28;20025;-52
2023/11/09 01:44:15;;;;;;;2.93;1.20;;;9.20;99.90;;;;;;5035739;28;20478;-55
2023/11/09 01:46:43;;;;;;;2.07;0.90;;;9.20;99.90;;;;;;5018305;28;20037;-54
2023/11/09 01:49:10;;;;;;;1.27;0.73;;;9.20;99.90;;;;;;5018026;28;20029;-54
2023/11/09 01:51:37;;;;;;;1.50;0.90;;;9.30;99.90;;;;;;5035832;28;20156;-54
2023/11/09 01:54:05;;;;;;;1.30;0.80;;;9.30;99.90;;;;;;5018045;28;20671;-54
2023/11/09 01:56:31;;;;;;;2.77;0.97;;;9.30;99.90;;;;;;5018486;28;20037;-54
2023/11/09 01:58:56;;;;;;;2.73;0.83;;;9.30;99.90;;;;;;5018090;28;20379;-53
2023/11/09 02:01:25;;;;;;;1.97;0.63;;;9.30;99.90;;;;;;5018264;28;20021;-54
2023/11/09 02:03:52;;;;;;;2.27;1.10;;;9.30;99.90;;;;;;5018216;28;20075;-55
2023/11/09 02:06:18;;;;;;;2.63;0.80;;;9.40;99.90;;;;;;5018104;28;20037;-55
2023/11/09 02:08:45;;;;;;;1.57;1.10;;;9.40;99.90;;;;;;5034707;28;20076;-52
2023/11/09 02:11:10;;;;;;;0.90;0.70;;;9.30;99.90;;;;;;5036293;28;20030;-56
2023/11/09 02:13:36;;;;;;;2.07;0.97;;;9.30;99.90;;;;;;5018332;28;20026;-55
2023/11/09 02:16:05;;;;;;;0.93;0.70;;;9.30;99.90;;;;;;5018005;28;20120;-55
2023/11/09 02:18:33;;;;;;;1.23;0.60;;;9.40;99.90;;;;;;5017253;28;20033;-55
2023/11/09 02:20:59;;;;;;;4.28;1.85;;;9.40;99.90;;;;;;5035747;28;20029;-55
2023/11/09 02:23:31;;;;;;;2.70;0.87;;;9.40;99.90;;;;;;5018433;28;20397;-53
2023/11/09 02:25:57;;;;;;;1.50;0.80;;;9.40;99.90;;;;;;5018281;28;20043;-56
2023/11/09 02:28:22;;;;;;;1.30;0.90;;;9.50;99.90;;;;;;5018245;28;20053;-52
2023/11/09 02:30:49;;;;;;;2.13;1.00;;;9.40;99.90;;;;;;5018189;28;20032;-55
2023/11/09 02:33:15;;;;;;;3.43;0.80;;;9.40;99.90;;;;;;5018520;28;20036;-53
2023/11/09 02:35:41;;;;;;;3.30;0.83;;;9.40;99.90;;;;;;5018124;28;20029;-56
2023/11/09 02:38:08;;;;;;;1.10;0.70;;;9.50;99.90;;;;;;5017232;28;20239;-56
2023/11/09 02:40:35;;;;;;;1.87;0.90;;;9.50;99.90;;;;;;5017388;28;20076;-53
2023/11/09 02:43:01;;;;;;;1.77;0.87;;;9.50;99.90;;;;;;5017181;28;20033;-55
2023/11/09 02:45:26;;;;;;;1.70;1.00;;;9.50;99.90;;;;;;5017310;28;20040;-54
2023/11/09 02:47:52;;;;;;;6.10;1.20;;;9.50;99.90;;;;;;5035447;28;20031;-56
2023/11/09 02:50:18;;;;;;;1.60;1.00;;;9.50;99.90;;;;;;5035093;28;20030;-56
2023/11/09 02:52:43;;;;;;;2.10;0.90;;;9.50;99.90;;;;;;5017016;28;20034;-55
2023/11/09 02:55:09;;;;;;;3.20;0.70;;;9.60;99.90;;;;;;5016901;28;20043;-55
2023/11/09 02:57:34;;;;;;;1.50;0.57;;;9.60;99.90;;;;;;5034864;28;20032;-52
2023/11/09 03:00:05;;;;;;;1.73;0.90;;;9.50;99.90;;;;;;5000664;28;20026;-52
2023/11/09 03:02:31;;;;;;;2.60;0.80;;;9.60;99.90;;;;;;5035144;28;20078;-55
2023/11/09 03:04:57;;;;;;;1.60;0.80;;;9.60;99.90;;;;;;5016971;28;20033;-54
2023/11/09 03:07:25;;;;;;;1.57;0.57;;;9.60;99.90;;;;;;5034693;28;20029;-55
2023/11/09 03:09:51;;;;;;;2.20;0.80;;;9.70;99.90;;;;;;5016610;28;20490;-52
2023/11/09 03:12:17;;;;;;;1.90;0.90;;;9.70;99.90;;;;;;5017167;28;20033;-54
2023/11/09 03:14:42;;;;;;;1.53;0.80;;;9.70;99.90;;;;;;5034947;28;20045;-53
2023/11/09 03:17:10;;;;;;;1.57;0.87;;;9.70;99.90;;;;;;5033814;28;20028;-55
2023/11/09 03:19:38;;;;;;;1.20;0.70;;;9.70;99.90;;;;;;5016743;28;20029;-54
2023/11/09 03:22:07;;;;;;;1.60;0.70;;;9.70;99.90;;;;;;5016204;28;20486;-54
2023/11/09 03:24:33;;;;;;;1.27;0.60;;;9.70;99.90;;;;;;5016583;28;20066;-54
2023/11/09 03:27:01;;;;;;;1.50;0.70;;;9.70;99.90;;;;;;5015773;28;20641;-53
2023/11/09 03:29:27;;;;;;;2.10;0.60;;;9.70;99.90;;;;;;5034060;28;20029;-53
2023/11/09 03:31:53;;;;;;;3.70;0.70;;;9.70;99.90;;;;;;5015952;28;20029;-55
2023/11/09 03:34:18;;;;;;;1.77;0.80;;;9.70;99.90;;;;;;5016132;28;20105;-51
2023/11/09 03:36:45;;;;;;;1.30;0.80;;;9.80;99.90;;;;;;5033951;28;20474;-51
2023/11/09 03:39:10;;;;;;;1.53;0.80;;;9.80;99.90;;;;;;5033597;28;20390;-55
2023/11/09 03:41:36;;;;;;;1.20;0.70;;;9.80;99.90;;;;;;5033368;28;20022;-54
2023/11/09 03:44:02;;;;;;;1.70;0.77;;;9.80;99.90;;;;;;5034009;28;20033;-51
2023/11/09 03:46:27;;;;;;;1.67;0.60;;;9.80;99.90;;;;;;5015761;28;20037;-53
2023/11/09 03:48:53;;;;;;;1.40;0.60;;;9.80;99.90;;;;;;5015622;28;20026;-55
2023/11/09 03:51:18;;;;;;;2.60;0.83;;;9.80;99.90;;;;;;5033277;28;20044;-54
2023/11/09 03:53:44;;;;;;;2.97;0.60;;;9.80;99.90;;;;;;5033442;28;20029;-54
2023/11/09 03:56:10;;;;;;;0.90;0.50;;;9.80;99.90;;;;;;5015680;28;20055;-53
2023/11/09 03:58:36;;;;;;;1.43;0.70;;;9.90;99.90;;;;;;5032832;28;20029;-54
2023/11/09 04:01:01;;;;;;;3.00;0.80;;;9.90;99.90;;;;;;5033496;28;20044;-55
2023/11/09 04:03:27;;;;;;;3.60;0.70;;;9.90;99.90;;;;;;5033464;28;20047;-53
2023/11/09 04:05:52;;;;;;;1.33;0.60;;;9.90;99.90;;;;;;5033029;28;20043;-55
2023/11/09 04:08:18;;;;;;;0.80;0.47;;;9.90;99.90;;;;;;5032818;28;20037;-52
2023/11/09 04:10:46;;;;;;;1.00;0.50;;;9.90;99.90;;;;;;5032919;28;20494;-52
2023/11/09 04:13:12;;;;;;;2.33;0.60;;;9.90;99.90;;;;;;5033021;28;20033;-51
2023/11/09 04:15:40;;;;;;;0.60;0.50;;;10.00;99.90;;;;;;5033095;28;20029;-53
2023/11/09 04:18:06;;;;;;;0.70;0.40;;;10.00;99.90;;;;;;5033296;28;20029;-50
2023/11/09 04:20:31;;;;;;;0.77;0.50;;;9.90;99.90;;;;;;5032840;28;20406;-53
2023/11/09 04:22:58;;;;;;;2.27;0.60;;;10.00;99.90;;;;;;5033074;28;20111;-53
2023/11/09 04:25:24;;;;;;;1.20;0.60;;;10.00;99.90;;;;;;5032979;28;20042;-53
2023/11/09 04:27:50;;;;;;;2.33;1.50;;;10.00;99.90;;;;;;5032566;28;20038;-53
2023/11/09 04:30:16;;;;;;;1.30;0.70;;;10.00;99.90;;;;;;5032734;28;20033;-53
2023/11/09 04:32:43;;;;;;;0.87;0.67;;;10.00;99.90;;;;;;5035167;28;20095;-54
2023/11/09 04:35:09;;;;;;;1.57;0.60;;;10.10;99.90;;;;;;5018757;28;20544;-51
2023/11/09 04:37:38;;;;;;;1.77;0.80;;;10.00;99.90;;;;;;5036230;28;20022;-55
2023/11/09 04:40:12;;;;;;;1.05;0.60;;;10.00;99.90;;;;;;5036172;28;20433;-55
2023/11/09 04:42:49;;;;;;;0.73;0.40;;;10.00;99.90;;;;;;5018969;28;20034;-53
2023/11/09 04:45:16;;;;;;;1.27;0.60;;;10.10;99.90;;;;;;5036453;28;20033;-55
2023/11/09 04:47:47;;;;;;;0.67;0.47;;;10.10;99.90;;;;;;5036684;28;20152;-52
2023/11/09 04:50:22;;;;;;;3.73;0.60;;;10.10;99.90;;;;;;5036156;28;20034;-54
2023/11/09 04:52:57;;;;;;;1.50;0.50;;;10.10;99.90;;;;;;5036461;28;20033;-51
2023/11/09 04:55:32;;;;;;;1.13;0.60;;;10.10;99.90;;;;;;5036679;28;20033;-52
2023/11/09 05:08:56;;;;;;;1.13;0.40;;;10.10;99.90;;;;;;5035778;28;20041;-50
2023/11/09 05:11:22;;;;;;;0.50;0.20;;;10.20;99.90;;;;;;5036360;28;20078;-55
2023/11/09 05:13:47;;;;;;;2.47;0.40;;;10.20;99.90;;;;;;5036263;28;20022;-53
2023/11/09 05:16:13;;;;;;;0.40;0.40;;;10.30;99.90;;;;;;5036288;28;20033;-55
2023/11/09 05:18:39;;;;;;;0.60;0.40;;;10.40;99.90;;;;;;5035276;28;20030;-55
2023/11/09 05:21:05;;;;;;;0.53;0.20;;;10.40;99.90;;;;;;5035936;28;20117;-52
2023/11/09 05:23:31;;;;;;;0.60;0.20;;;10.40;99.90;;;;;;5036204;28;20440;-55
2023/11/09 05:25:56;;;;;;;1.13;0.20;;;10.40;99.90;;;;;;5036550;28;20030;-54
2023/11/09 05:28:22;;;;;;;0.33;0.20;;;10.40;99.90;;;;;;5035751;28;20029;-51
2023/11/09 05:30:50;;;;;;;0.70;0.20;;;10.50;99.90;;;;;;5018543;28;20037;-53
2023/11/09 05:33:19;;;;;;;0.27;0.10;;;10.50;99.90;;;;;;5036007;28;20379;-52
2023/11/09 05:35:45;;;;;;;0.20;0.20;;;10.50;99.90;;;;;;5018493;28;20026;-55
2023/11/09 05:38:11;;;;;;;0.20;0.10;;;10.50;99.90;;;;;;5035660;28;20040;-51
2023/11/09 05:40:37;;;;;;;0.60;0.20;;;10.50;99.90;;;;;;5035750;28;20061;-53
2023/11/09 05:43:03;;;;;;;0.20;0.20;;;10.60;99.90;;;;;;5017842;28;20033;-55
2023/11/09 05:45:28;;;;;;;0.10;0.10;;;10.60;99.90;;;;;;5035027;28;20091;-54
2023/11/09 05:47:56;;;;;;;0.20;0.10;;;10.60;99.90;;;;;;5018058;28;20072;-52
2023/11/09 05:50:22;;;;;;;1.13;0.60;;;10.60;99.90;;;;;;5035254;28;20154;-50
2023/11/09 05:52:47;;;;;;;0.27;0.20;;;10.60;99.90;;;;;;5035245;28;20149;-53
2023/11/09 05:55:13;;;;;;;1.50;0.20;;;10.60;99.90;;;;;;5035643;28;20021;-55
2023/11/09 05:57:39;;;;;;;0.23;0.10;;;10.60;99.90;;;;;;5035370;28;20474;-52
2023/11/09 06:00:06;;;;;;;0.20;0.20;;;10.60;99.90;;;;;;5017246;28;20111;-50
2023/11/09 06:02:31;;;;;;;0.17;0.10;;;10.60;99.90;;;;;;5034903;28;20040;-54
2023/11/09 06:04:57;;;;;;;0.40;0.20;;;10.60;99.90;;;;;;5035629;28;20029;-55
2023/11/09 06:07:23;;;;;;;1.00;0.20;;;10.60;99.90;;;;;;5034997;28;20033;-54
2023/11/09 06:09:49;;;;;;;0.87;0.20;;;10.50;99.90;;;;;;5034884;28;20496;-52
2023/11/09 06:12:15;;;;;;;0.93;0.20;;;10.50;99.90;;;;;;5035085;28;20105;-54
2023/11/09 06:14:41;;;;;;;1.00;0.50;;;10.50;99.90;;;;;;5034733;28;20033;-55
2023/11/09 06:17:07;;;;;;;1.00;0.70;;;10.50;99.90;;;;;;5034500;28;20132;-54
2023/11/09 06:19:33;;;;;;;2.30;0.27;;;10.40;99.90;;;;;;5034398;28;20026;-53
2023/11/09 06:21:59;;;;;;;0.50;0.37;;;10.40;99.90;;;;;;5034383;28;20029;-52
2023/11/09 06:24:24;;;;;;;0.63;0.30;;;10.30;99.90;;;;;;5034708;28;20029;-54
2023/11/09 06:26:51;;;;;;;0.73;0.50;;;10.30;99.90;;;;;;5034686;28;20045;-53
2023/11/09 06:29:17;;;;;;;0.30;0.30;;;10.30;99.90;;;;;;5034032;28;20063;-54
2023/11/09 06:31:43;;;;;;;3.10;0.90;;;10.20;99.90;;;;;;5033928;28;20433;-52
2023/11/09 06:34:14;;;;;;;2.40;0.77;;;10.20;99.90;;;;;;5035004;28;20025;-52
2023/11/09 06:36:43;;;;;;;1.20;0.60;;;10.10;99.90;;;;;;5016622;28;20065;-54
2023/11/09 06:39:10;;;;;;;1.67;0.65;;;10.10;99.90;;;;;;5034064;28;20033;-55
2023/11/09 06:41:37;;;;;;;1.13;0.50;;;10.00;99.90;;;;;;5034064;28;20043;-52
2023/11/09 06:44:03;;;;;;;1.20;0.73;;;10.00;99.90;;;;;;5034057;28;20029;-53
2023/11/09 06:46:29;;;;;;;1.40;0.90;;;9.90;99.90;;;;;;5034520;28;20401;-52
2023/11/09 06:48:54;;;;;;;2.53;0.80;;;9.90;99.90;;;;;;5034026;28;20036;-52
2023/11/09 06:51:20;;;;;;;2.17;0.80;;;9.90;99.90;;;;;;5034307;28;20033;-55
2023/11/09 06:53:45;;;;;;;2.67;1.23;;;9.90;99.90;;;;;;5034412;28;20029;-54
2023/11/09 06:56:11;;;;;;;1.00;0.60;;;9.90;99.90;;;;;;5016697;28;20061;-53
2023/11/09 06:58:37;;;;;;;5.00;1.00;;;9.80;99.90;;;;;;5033834;28;20569;-54
2023/11/09 07:01:03;;;;;;;3.77;1.10;;;9.80;99.90;;;;;;5033997;28;20402;-55
2023/11/09 07:03:29;;;;;;;2.60;1.00;;;9.80;99.90;;;;;;5034049;28;20025;-53
2023/11/09 07:05:54;;;;;;;1.70;0.90;;;9.80;99.90;;;;;;5033814;28;20419;-54
2023/11/09 07:08:26;;;;;;;1.67;0.90;;;9.80;99.90;;;;;;5033558;28;20371;-56
2023/11/09 07:10:52;;;;;;;0.80;0.50;;;9.80;99.90;;;;;;5033640;28;20061;-54
2023/11/09 07:13:17;;;;;;;2.73;1.07;;;9.70;99.90;;;;;;5033433;28;20501;-54
2023/11/09 07:15:45;;;;;;;1.80;0.97;;;9.80;99.90;;;;;;5033675;28;20057;-51
2023/11/09 07:18:11;;;;;;;2.23;0.73;;;9.70;99.90;;;;;;5033587;28;20033;-55
2023/11/09 07:20:36;;;;;;;2.27;0.93;;;9.70;99.90;;;;;;5033550;28;20043;-55
2023/11/09 07:23:06;;;;;;;1.73;0.60;;;9.70;99.90;;;;;;5016270;28;20043;-56
2023/11/09 07:25:36;;;;;;;3.57;1.03;;;9.60;99.90;;;;;;5033649;28;20036;-55
2023/11/09 07:28:07;;;;;;;2.03;1.00;;;9.60;99.90;;;;;;5033113;28;20033;-54
2023/11/09 07:30:32;;;;;;;3.37;1.13;;;9.70;99.90;;;;;;5033480;28;20041;-54
2023/11/09 07:33:00;;;;;;;1.83;0.93;;;9.60;99.90;;;;;;5033253;28;20075;-55
2023/11/09 07:35:25;;;;;;;5.23;1.20;;;9.70;99.90;;;;;;5033637;28;20033;-55
2023/11/09 07:37:51;;;;;;;5.60;1.20;;;9.60;99.90;;;;;;5033350;28;20022;-56
2023/11/09 07:40:18;;;;;;;2.00;0.83;;;9.60;99.90;;;;;;5033533;28;20027;-54
2023/11/09 07:42:43;;;;;;;2.27;1.07;;;9.70;99.90;;;;;;5033399;28;20041;-54
2023/11/09 07:45:10;;;;;;;3.07;1.10;;;9.70;99.90;;;;;;5033888;28;20032;-53
2023/11/09 07:47:36;;;;;;;3.90;1.20;;;9.60;99.90;;;;;;5033392;28;20489;-54
2023/11/09 07:50:04;;;;;;;5.43;1.53;;;9.70;99.90;;;;;;5033129;28;20034;-54
2023/11/09 07:52:30;;;;;;;7.75;1.67;;;9.70;99.90;;;;;;5033754;28;20048;-52
2023/11/09 07:54:56;;;;;;;4.33;1.20;;;9.70;99.90;;;;;;5033372;28;20095;-56
2023/11/09 07:57:22;;;;;;;4.20;1.13;;;9.60;99.90;;;;;;5032707;28;20496;-55
2023/11/09 07:59:47;;;;;;;3.60;1.03;;;9.70;99.90;;;;;;5032952;28;20029;-56
2023/11/09 08:02:13;;;;;;;5.30;0.77;;;9.70;99.90;;;;;;5033296;28;20033;-55
2023/11/09 08:04:41;;;;;;;4.33;0.70;;;9.70;99.90;;;;;;5032855;28;20033;-54
2023/11/09 08:07:08;;;;;;;2.05;0.65;;;9.80;99.90;;;;;;5032003;28;20122;-55
2023/11/09 08:09:36;;;;;;;3.30;1.17;;;9.90;99.90;;;;;;5032352;28;20478;-52
2023/11/09 08:12:01;;;;;;;1.07;0.77;;;9.80;99.90;;;;;;5032805;28;20064;-55
2023/11/09 08:14:27;;;;;;;1.67;0.63;;;9.90;99.90;;;;;;5032976;28;20037;-55
2023/11/09 08:16:53;;;;;;;4.97;1.17;;;9.90;99.90;;;;;;5014857;28;20026;-50
2023/11/09 08:19:19;;;;;;;2.20;0.70;;;10.00;99.90;;;;;;5032421;28;20044;-54
2023/11/09 08:21:45;;;;;;;1.30;0.60;;;9.90;99.90;;;;;;5032207;28;20030;-54
2023/11/09 08:24:11;;;;;;;17.80;7.83;;;9.90;99.90;;;;;;5032290;28;20040;-54
2023/11/09 08:26:36;;;;;;;15.80;6.80;;;9.90;99.90;;;;;;5032154;28;20121;-54
2023/11/09 08:29:02;;;;;;;11.30;4.47;;;10.00;99.90;;;;;;5031555;28;20120;-54
2023/11/09 08:31:28;;;;;;;2.97;0.97;;;10.00;99.90;;;;;;5031721;28;20449;-51
2023/11/09 08:33:54;;;;;;;3.97;0.80;;;9.90;99.90;;;;;;5031825;28;20021;-53
2023/11/09 08:36:20;;;;;;;4.73;0.80;;;9.90;99.90;;;;;;5032132;28;20029;-54
2023/11/09 08:38:47;;;;;;;2.67;0.60;;;10.10;99.90;;;;;;5031923;28;20040;-55
2023/11/09 08:41:13;;;;;;;2.13;0.40;;;10.10;99.90;;;;;;5032026;28;20069;-55
2023/11/09 08:43:39;;;;;;;1.03;0.50;;;10.10;99.90;;;;;;5032867;28;20030;-55
2023/11/09 08:46:05;;;;;;;2.00;1.00;;;10.10;99.90;;;;;;5032299;28;20030;-54
2023/11/09 08:48:31;;;;;;;4.03;1.53;;;10.10;99.90;;;;;;5031997;28;20025;-53
2023/11/09 08:51:00;;;;;;;2.03;0.87;;;10.10;99.90;;;;;;5032017;28;20029;-55
2023/11/09 08:53:29;;;;;;;;;;;10.20;99.90;;;;;;5033220;28;20040;-54
2023/11/09 08:55:55;;;;;;;1.75;0.50;;;10.20;99.90;;;;;;5032488;28;19968;-55
2023/11/09 08:58:20;;;;;;;4.43;1.10;;;10.10;99.90;;;;;;5032456;28;20057;-55
2023/11/09 09:00:46;;;;;;;3.67;1.10;;;10.20;99.90;;;;;;5031824;28;20087;-54
2023/11/09 09:03:12;;;;;;;2.70;1.10;;;10.20;99.90;;;;;;5031738;28;20544;-54
2023/11/09 09:05:37;;;;;;;6.63;1.23;;;10.20;99.90;;;;;;5014683;28;20525;-53
2023/11/09 09:08:03;;;;;;;3.67;1.20;;;10.20;99.90;;;;;;5032193;28;20029;-52
2023/11/09 09:10:30;;;;;;;2.53;1.27;;;10.20;99.90;;;;;;5032081;28;20048;-55
2023/11/09 09:12:56;;;;;;;3.83;0.90;;;10.30;99.90;;;;;;5032252;28;20029;-55
2023/11/09 09:15:23;;;;;;;2.20;1.20;;;10.30;99.90;;;;;;5032390;28;20025;-53
2023/11/09 09:17:52;;;;;;;3.30;1.03;;;10.30;99.90;;;;;;5031859;28;20060;-53
2023/11/09 09:20:22;;;;;;;3.13;0.90;;;10.30;99.90;;;;;;5034642;28;20029;-55
2023/11/09 09:22:56;;;;;;;2.30;1.00;;;10.40;99.90;;;;;;5036125;28;20045;-55
2023/11/09 09:25:23;;;;;;;5.33;1.63;;;10.40;99.90;;;;;;5035868;28;20095;-55
2023/11/09 09:27:53;;;;;;;4.23;1.30;;;10.40;99.90;;;;;;5035253;28;20033;-56
2023/11/09 09:30:21;;;;;;;3.70;1.07;;;10.40;99.90;;;;;;5035070;28;20037;-55
2023/11/09 09:32:47;;;;;;;4.30;1.17;;;10.40;99.90;;;;;;5035277;28;20021;-56
2023/11/09 09:35:14;;;;;;;4.40;1.17;;;10.40;99.90;;;;;;5035303;28;20430;-54
2023/11/09 09:37:47;;;;;;;4.27;0.90;;;10.50;99.90;;;;;;5035193;28;20029;-56
2023/11/09 09:40:17;;;;;;;2.07;0.80;;;10.50;99.90;;;;;;5035214;28;20065;-53
2023/11/09 09:42:46;;;;;;;5.73;1.43;;;10.50;99.90;;;;;;5035489;28;20045;-53
2023/11/09 09:45:18;;;;;;;6.07;1.30;;;10.40;99.90;;;;;;5035489;28;20132;-54
2023/11/09 09:47:45;;;;;;;4.20;1.40;;;10.50;99.90;;;;;;5034930;28;20480;-52
2023/11/09 09:50:12;;;;;;;7.47;1.50;;;10.50;99.90;;;;;;5035195;28;20140;-52
2023/11/09 09:52:39;;;;;;;6.20;1.30;;;10.50;99.90;;;;;;5035193;28;20544;-54
2023/11/09 09:55:08;;;;;;;4.13;1.40;;;10.50;99.90;;;;;;5035048;28;20390;-52
2023/11/09 09:57:35;;;;;;;2.38;1.13;;;10.50;99.90;;;;;;5034870;28;20030;-52
2023/11/09 10:00:06;;;;;;;3.67;1.30;;;10.50;99.90;;;;;;5035013;28;20066;-54
2023/11/09 10:02:37;;;;;;;4.23;1.20;;;10.60;99.90;;;;;;5035156;28;20048;-50
2023/11/09 10:05:03;;;;;;;4.43;1.60;;;10.50;99.90;;;;;;5035290;28;20092;-54
2023/11/09 10:07:31;;;;;;;2.80;1.20;;;10.50;99.90;;;;;;5034803;28;20029;-55
2023/11/09 10:09:57;;;;;;;9.87;1.77;;;10.60;99.90;;;;;;5034894;28;20125;-55
2023/11/09 10:12:22;;;;;;;4.53;1.50;;;10.50;99.90;;;;;;5017403;28;20108;-50
2023/11/09 10:14:48;;;;;;;10.43;2.70;;;10.50;99.90;;;;;;5034868;28;20505;-52
2023/11/09 10:17:13;;;;;;;6.30;2.07;;;10.60;99.90;;;;;;5034296;28;20037;-52
2023/11/09 10:19:42;;;;;;;10.43;2.43;;;10.70;99.90;;;;;;5034250;28;20463;-55
2023/11/09 10:22:08;;;;;;;6.65;2.00;;;10.70;99.90;;;;;;5034264;28;20065;-53
2023/11/09 10:24:34;;;;;;;5.60;1.70;;;10.70;99.90;;;;;;5034170;28;20605;-55
2023/11/09 10:27:02;;;;;;;4.87;1.90;;;10.80;99.90;;;;;;5034571;28;20060;-53
2023/11/09 10:29:28;;;;;;;9.27;1.90;;;10.80;99.90;;;;;;5033721;28;20022;-55
2023/11/09 10:31:53;;;;;;;8.90;2.37;;;10.80;99.90;;;;;;5034003;28;20425;-55
2023/11/09 10:34:19;;;;;;;9.47;2.47;;;10.70;99.90;;;;;;5016972;28;20068;-51
2023/11/09 10:36:45;;;;;;;8.10;1.80;;;10.80;99.90;;;;;;5034227;28;20084;-50
2023/11/09 10:39:21;;;;;;;4.60;1.70;;;10.80;99.90;;;;;;5033955;28;20569;-54
2023/11/09 10:41:49;;;;;;;5.67;2.00;;;10.90;99.90;;;;;;5034283;28;20233;-55
2023/11/09 10:44:22;;;;;;;6.03;1.87;;;11.00;99.90;;;;;;5034066;28;20034;-55
2023/11/09 10:46:55;;;;;;;6.33;1.50;;;11.00;99.90;;;;;;5033919;28;20075;-51
2023/11/09 10:49:27;;;;;;;6.93;1.30;;;11.00;99.90;;;;;;5033639;28;20041;-54
2023/11/09 10:51:59;;;;;;;9.40;1.97;;;11.00;99.90;;;;;;5033691;28;20116;-55
2023/11/09 10:54:29;;;;;;;7.30;1.90;;;11.00;99.90;;;;;;5033828;28;20026;-51
2023/11/09 10:56:55;;;;;;;7.43;1.50;;;11.00;99.90;;;;;;5015826;28;20525;-51
2023/11/09 10:59:23;;;;;;;12.57;1.80;;;11.00;99.90;;;;;;5033236;28;20025;-54
2023/11/09 11:01:53;;;;;;;6.67;1.90;;;11.00;99.90;;;;;;5033849;28;20040;-54
2023/11/09 11:04:25;;;;;;;5.43;1.47;;;10.90;99.90;;;;;;5033619;28;20033;-54
2023/11/09 11:06:56;;;;;;;4.43;1.57;;;11.00;99.90;;;;;;5033741;28;20200;-55
2023/11/09 11:09:26;;;;;;;5.43;1.60;;;11.10;99.90;;;;;;5033308;28;20033;-54
2023/11/09 11:11:58;;;;;;;5.93;1.87;;;11.10;99.90;;;;;;5033609;28;20471;-55
2023/11/09 11:14:26;;;;;;;7.50;1.97;;;11.10;99.90;;;;;;5033448;28;20032;-55
2023/11/09 11:17:33;;;;;;;6.80;2.37;;;11.00;99.90;;;;;;5033299;28;20030;-51
2023/11/09 11:20:30;;;;;;;7.03;1.90;;;11.10;99.90;;;;;;5032547;28;20102;-53
2023/11/09 11:22:58;;;;;;;7.20;1.80;;;11.10;99.90;;;;;;5032828;28;20040;-54
2023/11/09 11:25:50;;;;;;;7.35;2.10;;;11.10;99.90;;;;;;5033224;28;20037;-53
2023/11/09 11:28:17;;;;;;;9.00;2.13;;;11.10;99.90;;;;;;5032828;28;20077;-55
2023/11/09 11:30:44;;;;;;;8.10;2.00;;;11.10;99.90;;;;;;5015183;28;20037;-54
2023/11/09 11:33:14;;;;;;;8.20;1.87;;;11.10;99.90;;;;;;5033408;28;20030;-53
2023/11/09 11:35:48;;;;;;;9.23;1.93;;;11.10;99.90;;;;;;5032783;28;20033;-54
2023/11/09 11:38:14;;;;;;;4.73;1.57;;;11.10;99.90;;;;;;5032503;28;20041;-53
2023/11/09 11:40:40;;;;;;;6.33;1.77;;;11.10;99.90;;;;;;5032608;28;20029;-54
2023/11/09 11:43:08;;;;;;;4.13;1.53;;;11.10;99.90;;;;;;5032294;28;20047;-53
2023/11/09 11:45:38;;;;;;;6.80;1.70;;;11.10;99.90;;;;;;5032418;28;20037;-53
2023/11/09 11:48:12;;;;;;;7.33;2.10;;;11.10;99.90;;;;;;5032107;28;20232;-50
2023/11/09 11:50:41;;;;;;;7.87;2.63;;;11.00;99.90;;;;;;5014410;28;20033;-55
2023/11/09 11:53:12;;;;;;;7.47;2.55;;;11.00;99.90;;;;;;5032347;28;20497;-55
2023/11/09 11:55:56;;;;;;;9.43;2.20;;;11.00;99.90;;;;;;5032053;28;20055;-53
2023/11/09 11:58:22;;;;;;;7.63;2.20;;;11.00;99.90;;;;;;5032044;28;20026;-50
2023/11/09 12:00:50;;;;;;;6.63;1.97;;;11.00;99.90;;;;;;5032884;28;20044;-54
2023/11/09 12:03:16;;;;;;;12.90;3.97;;;11.00;99.90;;;;;;5032598;28;20108;-53
2023/11/09 12:05:43;;;;;;;6.00;1.70;;;11.10;99.90;;;;;;5032592;28;20492;-54
2023/11/09 12:08:13;;;;;;;8.00;2.27;;;11.20;99.90;;;;;;5031719;28;20470;-52
2023/11/09 12:10:42;;;;;;;7.37;1.83;;;11.20;99.90;;;;;;5032032;28;20025;-53
2023/11/09 12:13:09;;;;;;;4.80;1.77;;;11.30;99.90;;;;;;5032150;28;20429;-55
2023/11/09 12:15:35;;;;;;;7.00;2.20;;;11.30;99.90;;;;;;5032244;28;20033;-53
2023/11/09 12:18:02;;;;;;;6.80;2.30;;;11.30;99.90;;;;;;5031935;28;20201;-54
2023/11/09 12:20:30;;;;;;;7.40;2.30;;;11.40;99.90;;;;;;5032015;28;20033;-55
2023/11/09 12:22:58;;;;;;;6.70;1.83;;;11.90;99.90;;;;;;5031932;28;20041;-55
2023/11/09 12:25:28;;;;;;;4.25;1.85;;;12.70;99.90;;;;;;5031887;28;20033;-53
2023/11/09 12:27:57;;;;;;;5.13;2.17;;;13.70;99.90;;;;;;5031655;28;20033;-50
2023/11/09 12:30:23;;;;;;;3.67;1.27;;;14.50;99.90;;;;;;5032474;28;20060;-56
2023/11/09 12:32:53;;;;;;;6.32;1.40;;;15.40;99.90;;;;;;5032735;28;20026;-53
2023/11/09 12:35:18;;;;;;;5.38;1.48;;;15.50;99.90;;;;;;5032571;28;20145;-53
2023/11/09 12:37:49;;;;;;;6.47;2.17;;;15.20;99.90;;;;;;5032037;28;20509;-55
2023/11/09 12:40:17;;;;;;;6.20;1.70;;;14.60;99.90;;;;;;5032007;28;20037;-52
2023/11/09 12:42:44;;;;;;;4.60;1.10;;;13.80;99.90;;;;;;5032090;28;20040;-50
2023/11/09 12:45:10;;;;;;;4.18;1.40;;;13.50;99.90;;;;;;5031977;28;20390;-52
2023/11/09 12:47:38;;;;;;;5.65;1.10;;;13.00;99.90;;;;;;5031451;28;20043;-55
2023/11/09 12:50:06;;;;;;;6.07;1.73;;;12.60;99.90;;;;;;5031358;28;20061;-52
2023/11/09 12:52:36;;;;;;;4.30;1.10;;;12.30;99.90;;;;;;5032025;28;20026;-53
2023/11/09 12:55:06;;;;;;;8.75;1.50;;;12.20;99.90;;;;;;5035956;28;20033;-54
2023/11/09 12:57:35;;;;;;;5.28;1.45;;;12.10;99.90;;;;;;5035438;28;20453;-54
2023/11/09 13:00:04;;;;;;;6.20;1.80;;;12.10;99.90;;;;;;5035562;28;20034;-54
2023/11/09 13:02:42;;;;;;;10.57;1.92;;;12.00;99.90;;;;;;5035919;28;20061;-52